»·PEaware :: DAL981 KLAX-KJFK

DAL981 :: KLAX-KJFK

FLIGHT INFORMATION

Flight Status: Arrived
Operator:
Delta Air Lines
More flights by this operator :: More flights under this callsign
Pilot: Gabriel S. (32862)
Aircraft: BOEING 767-300
(B763)
More flights by this aircraft type
Origin: KLAX Los Angeles Intl
United States
Destination: KJFK Kennedy Intl
United States
More flights between these airports :: More routes between these airports
Route: CLEEE PKE J78 DRK J96 SLN J18 JOT J146 GIJ J554 JHW J70 LVZ LENDY6
File this flight plan on PilotEdge
Remarks: RMK / SIMBRIEF
Altitude:
(Current/Filed)
35,000ft
Speed:
(Current/Filed)
476kts
Departed: 23-Jan-22 04:12 AM
Arrived: 23-Jan-22 09:13 AM
Distance/Time
Traveled:
2144nm/5:01
Distance/Time
To Go:
Arrived

Flight Plot

Page will automatically refresh every two minutes.

Flight plan parsing failed; only flown route is shown


Map Options




Map Legend


Flown Route
Filed Route
Departure Airport
Arrival Airport
Navaid (VOR, NDB)
Fix

Horizontal Profiles

Position Reports

Time Latitude Longitude Heading Altitude Ground
Speed
23-Jan-22 04:01 33.947069 -118.408322 141 138ft 0kts
23-Jan-22 04:02 33.947069 -118.408322 141 138ft 0kts
23-Jan-22 04:03 33.947069 -118.408322 141 138ft 0kts
23-Jan-22 04:04 33.947069 -118.408322 141 138ft 0kts
23-Jan-22 04:05 33.947289 -118.408605 123 138ft 2kts
23-Jan-22 04:06 33.947476 -118.409287 91 138ft 2kts
23-Jan-22 04:07 33.947464 -118.409546 81 138ft 0kts
23-Jan-22 04:08 33.948187 -118.408692 39 138ft 8kts
23-Jan-22 04:09 33.948620 -118.406232 83 138ft 15kts
23-Jan-22 04:10 33.949728 -118.400612 357 138ft 12kts
23-Jan-22 04:11 33.949257 -118.410880 262 138ft 113kts
23-Jan-22 04:12 33.943032 -118.473748 265 1281ft 244kts
23-Jan-22 04:13 33.938326 -118.557496 266 3728ft 257kts
23-Jan-22 04:14 33.913631 -118.636262 203 6101ft 275kts
23-Jan-22 04:15 33.838877 -118.633505 150 8691ft 272kts
23-Jan-22 04:16 33.773026 -118.582106 142 10384ft 320kts
23-Jan-22 04:17 33.695769 -118.506992 117 12254ft 370kts
23-Jan-22 04:18 33.658431 -118.389538 104 15165ft 386kts
23-Jan-22 04:19 33.644867 -118.262242 85 17827ft 394kts
23-Jan-22 04:20 33.644737 -118.126963 84 20326ft 416kts
23-Jan-22 04:21 33.644570 -117.984521 84 22666ft 438kts
23-Jan-22 04:22 33.644288 -117.842955 84 24779ft 457kts
23-Jan-22 04:23 33.664056 -117.692771 70 26884ft 463kts
23-Jan-22 04:24 33.693292 -117.539704 70 28997ft 477kts
23-Jan-22 04:25 33.722756 -117.384942 70 31691ft 472kts
23-Jan-22 04:26 33.749487 -117.231527 79 33938ft 476kts
23-Jan-22 04:27 33.748084 -117.071393 84 35168ft 483kts
23-Jan-22 04:28 33.744721 -116.912306 84 35201ft 476kts
23-Jan-22 04:29 33.741121 -116.753472 84 35209ft 474kts
23-Jan-22 04:30 33.737324 -116.595444 84 35208ft 473kts
23-Jan-22 04:31 33.733337 -116.437660 84 35206ft 471kts
23-Jan-22 04:32 33.729199 -116.281008 84 35208ft 469kts
23-Jan-22 04:33 33.724872 -116.124627 84 35208ft 468kts
23-Jan-22 04:34 33.750566 -115.977072 65 35212ft 448kts
23-Jan-22 04:35 33.789652 -115.834917 64 35215ft 447kts
23-Jan-22 04:36 33.828784 -115.692992 64 35214ft 447kts
23-Jan-22 04:37 33.867855 -115.550656 64 35213ft 448kts
23-Jan-22 04:38 33.906718 -115.408376 65 35214ft 448kts
23-Jan-22 04:39 33.945289 -115.266446 65 35214ft 448kts
23-Jan-22 04:40 33.983821 -115.123890 66 35202ft 447kts
23-Jan-22 04:41 34.021989 -114.981950 66 35174ft 440kts
23-Jan-22 04:42 34.059599 -114.841377 66 35166ft 440kts
23-Jan-22 04:43 34.096844 -114.701461 67 35168ft 439kts
23-Jan-22 04:44 34.135834 -114.562486 66 35184ft 436kts
23-Jan-22 04:45 34.174838 -114.424102 66 35190ft 436kts
23-Jan-22 04:46 34.213450 -114.286422 66 35201ft 437kts
23-Jan-22 04:47 34.252096 -114.147881 66 35210ft 435kts
23-Jan-22 04:48 34.290514 -114.009556 66 35220ft 434kts
23-Jan-22 04:49 34.328883 -113.870723 67 35220ft 435kts
23-Jan-22 04:50 34.367110 -113.731691 67 35220ft 435kts
23-Jan-22 04:51 34.405083 -113.592891 67 35219ft 436kts
23-Jan-22 04:52 34.442984 -113.453656 67 35217ft 436kts
23-Jan-22 04:53 34.480897 -113.313669 68 35222ft 437kts
23-Jan-22 04:54 34.518737 -113.173269 68 35228ft 438kts
23-Jan-22 04:55 34.556305 -113.033047 68 35218ft 439kts
23-Jan-22 04:56 34.593910 -112.891986 69 35225ft 440kts
23-Jan-22 04:57 34.631409 -112.750741 69 35224ft 441kts
23-Jan-22 04:58 34.668870 -112.608705 69 35229ft 442kts
23-Jan-22 04:59 34.705879 -112.466478 71 35222ft 443kts
23-Jan-22 05:00 34.738989 -112.322486 72 35230ft 444kts
23-Jan-22 05:01 34.772004 -112.178354 72 35236ft 443kts
23-Jan-22 05:02 34.804963 -112.033734 72 35241ft 443kts
23-Jan-22 05:03 34.837692 -111.889195 72 35230ft 445kts
23-Jan-22 05:04 34.870336 -111.744144 72 35232ft 444kts
23-Jan-22 05:05 34.902714 -111.599434 72 35233ft 444kts
23-Jan-22 05:06 34.934987 -111.454297 72 35233ft 443kts
23-Jan-22 05:07 34.967027 -111.309303 73 35237ft 443kts
23-Jan-22 05:08 34.998878 -111.164251 73 35236ft 443kts
23-Jan-22 05:09 35.030643 -111.018685 73 35244ft 444kts
23-Jan-22 05:10 35.062229 -110.873014 73 35260ft 444kts
23-Jan-22 05:11 35.093622 -110.727331 74 35261ft 445kts
23-Jan-22 05:12 35.124727 -110.582068 74 35264ft 443kts
23-Jan-22 05:13 35.155692 -110.436533 74 35263ft 442kts
23-Jan-22 05:14 35.186437 -110.291080 74 35267ft 441kts
23-Jan-22 05:15 35.216911 -110.146018 74 35268ft 440kts
23-Jan-22 05:16 35.247101 -110.001360 74 35256ft 439kts
23-Jan-22 05:17 35.277209 -109.856184 75 35246ft 440kts
23-Jan-22 05:18 35.307122 -109.710980 75 35245ft 440kts
23-Jan-22 05:19 35.336902 -109.565427 75 35248ft 441kts
23-Jan-22 05:20 35.366531 -109.419751 75 35251ft 441kts
23-Jan-22 05:21 35.396103 -109.273236 75 35254ft 443kts
23-Jan-22 05:22 35.425543 -109.126673 75 35260ft 444kts
23-Jan-22 05:23 35.454839 -108.979429 76 35277ft 444kts
23-Jan-22 05:24 35.486498 -108.833202 70 35271ft 444kts
23-Jan-22 05:25 35.525795 -108.690070 71 35277ft 443kts
23-Jan-22 05:26 35.564641 -108.547071 70 35262ft 441kts
23-Jan-22 05:27 35.603100 -108.404431 71 35272ft 438kts
23-Jan-22 05:28 35.641123 -108.262740 72 35280ft 437kts
23-Jan-22 05:29 35.678933 -108.121132 71 35279ft 434kts
23-Jan-22 05:30 35.716370 -107.980253 71 35287ft 433kts
23-Jan-22 05:31 35.753571 -107.839302 71 35292ft 434kts
23-Jan-22 05:32 35.790761 -107.697721 71 35277ft 436kts
23-Jan-22 05:33 35.827904 -107.555545 72 35287ft 438kts
23-Jan-22 05:34 35.865189 -107.411960 72 35281ft 441kts
23-Jan-22 05:35 35.902618 -107.267158 72 35289ft 445kts
23-Jan-22 05:36 35.940168 -107.121018 72 35295ft 447kts
23-Jan-22 05:37 35.977587 -106.974544 72 35296ft 449kts
23-Jan-22 05:38 36.014893 -106.827679 72 35292ft 438kts
23-Jan-22 05:39 36.051320 -106.683539 72 35303ft 443kts
23-Jan-22 05:40 36.087702 -106.538575 72 35303ft 443kts
23-Jan-22 05:41 36.124003 -106.393245 72 35297ft 444kts
23-Jan-22 05:42 36.160362 -106.246929 73 35301ft 446kts
23-Jan-22 05:43 36.196460 -106.100605 73 35310ft 445kts
23-Jan-22 05:44 36.232482 -105.953803 73 35309ft 445kts
23-Jan-22 05:45 36.268227 -105.807276 73 35322ft 446kts
23-Jan-22 05:46 36.303902 -105.660173 72 35324ft 446kts
23-Jan-22 05:47 36.339511 -105.512420 73 35323ft 447kts
23-Jan-22 05:48 36.374913 -105.364697 72 35317ft 448kts
23-Jan-22 05:49 36.410263 -105.216198 73 35323ft 449kts
23-Jan-22 05:50 36.445548 -105.067206 73 35320ft 451kts
23-Jan-22 05:51 36.480765 -104.917449 73 35306ft 452kts
23-Jan-22 05:52 36.527893 -104.772795 64 35298ft 453kts
23-Jan-22 05:53 36.580271 -104.629849 64 35296ft 454kts
23-Jan-22 05:54 36.632500 -104.486720 65 35290ft 455kts
23-Jan-22 05:55 36.684692 -104.342824 65 35293ft 457kts
23-Jan-22 05:56 36.736719 -104.198864 65 35292ft 456kts
23-Jan-22 05:57 36.788737 -104.054210 65 35286ft 456kts
23-Jan-22 05:58 36.840686 -103.909100 65 35276ft 462kts
23-Jan-22 05:59 36.892711 -103.763055 64 35270ft 458kts
23-Jan-22 06:00 36.944406 -103.617196 64 35273ft 460kts
23-Jan-22 06:01 36.995786 -103.471525 64 35272ft 459kts
23-Jan-22 06:03 37.047128 -103.325335 64 35273ft 459kts
23-Jan-22 06:04 37.098324 -103.178853 65 35270ft 460kts
23-Jan-22 06:05 37.149371 -103.032006 64 35275ft 460kts
23-Jan-22 06:06 37.200369 -102.884609 64 35267ft 461kts
23-Jan-22 06:07 37.251145 -102.737132 64 35261ft 460kts
23-Jan-22 06:08 37.301584 -102.589904 64 35256ft 460kts
23-Jan-22 06:09 37.351931 -102.442202 63 35256ft 460kts
23-Jan-22 06:10 37.402136 -102.294183 64 35257ft 460kts
23-Jan-22 06:11 37.451998 -102.146452 64 35260ft 459kts
23-Jan-22 06:12 37.501648 -101.998592 64 35263ft 459kts
23-Jan-22 06:13 37.551259 -101.850105 63 35264ft 460kts
23-Jan-22 06:14 37.600859 -101.700903 63 35264ft 461kts
23-Jan-22 06:15 37.650207 -101.551681 63 35264ft 461kts
23-Jan-22 06:16 37.699286 -101.402516 63 35264ft 463kts
23-Jan-22 06:17 37.748674 -101.251625 64 35264ft 464kts
23-Jan-22 06:18 37.797847 -101.100595 64 35264ft 465kts
23-Jan-22 06:19 37.846936 -100.949023 64 35261ft 466kts
23-Jan-22 06:20 37.895823 -100.797265 63 35249ft 467kts
23-Jan-22 06:21 37.946112 -100.645710 62 35247ft 467kts
23-Jan-22 06:22 37.997514 -100.494627 62 35245ft 467kts
23-Jan-22 06:23 38.048353 -100.344394 62 35243ft 465kts
23-Jan-22 06:24 38.099278 -100.193123 62 35241ft 466kts
23-Jan-22 06:25 38.150106 -100.041406 62 35252ft 466kts
23-Jan-22 06:26 38.200648 -99.889607 61 35258ft 467kts
23-Jan-22 06:27 38.250935 -99.737991 61 35250ft 466kts
23-Jan-22 06:27 38.292814 -99.611092 62 35239ft 466kts
23-Jan-22 06:28 38.342815 -99.458688 61 35240ft 467kts
23-Jan-22 06:30 38.401036 -99.280383 61 35228ft 469kts
23-Jan-22 06:31 38.450772 -99.127023 61 35226ft 469kts
23-Jan-22 06:32 38.500513 -98.972882 61 35217ft 469kts
23-Jan-22 06:33 38.550053 -98.818549 61 35210ft 471kts
23-Jan-22 06:33 38.591264 -98.689432 61 35211ft 472kts
23-Jan-22 06:34 38.640693 -98.533982 61 35209ft 473kts
23-Jan-22 06:35 38.689981 -98.377931 61 35207ft 474kts
23-Jan-22 06:36 38.739166 -98.221306 61 35206ft 473kts
23-Jan-22 06:38 38.796365 -98.038322 61 35204ft 474kts
23-Jan-22 06:38 38.837042 -97.907234 61 35220ft 480kts
23-Jan-22 06:39 38.886045 -97.748624 61 35213ft 477kts
23-Jan-22 06:40 38.935065 -97.590149 56 35205ft 473kts
23-Jan-22 06:41 38.996606 -97.442207 54 35205ft 471kts
23-Jan-22 06:42 39.056579 -97.292172 55 35191ft 473kts
23-Jan-22 06:43 39.116524 -97.140881 55 35209ft 473kts
23-Jan-22 06:44 39.175986 -96.990031 55 35208ft 473kts
23-Jan-22 06:45 39.235439 -96.838487 55 35204ft 474kts
23-Jan-22 06:46 39.294971 -96.685895 55 35210ft 474kts
23-Jan-22 06:47 39.353988 -96.533955 55 35209ft 475kts
23-Jan-22 06:48 39.413156 -96.380770 54 35211ft 476kts
23-Jan-22 06:49 39.472010 -96.227647 55 35200ft 476kts
23-Jan-22 06:50 39.530635 -96.074363 55 35184ft 476kts
23-Jan-22 06:51 39.589124 -95.920665 55 35185ft 480kts
23-Jan-22 06:52 39.647909 -95.765325 55 35194ft 478kts
23-Jan-22 06:53 39.706138 -95.610685 55 35201ft 480kts
23-Jan-22 06:54 39.764601 -95.454605 55 35203ft 481kts
23-Jan-22 06:55 39.822844 -95.298260 56 35192ft 481kts
23-Jan-22 06:56 39.881228 -95.140761 56 35195ft 485kts
23-Jan-22 06:57 39.939740 -94.982012 56 35192ft 486kts
23-Jan-22 06:58 39.996236 -94.821077 57 35180ft 491kts
23-Jan-22 06:59 40.051536 -94.658560 57 35180ft 492kts
23-Jan-22 07:00 40.106874 -94.495044 57 35190ft 494kts
23-Jan-22 07:01 40.162263 -94.330453 58 35187ft 496kts
23-Jan-22 07:02 40.217453 -94.165437 58 35193ft 496kts
23-Jan-22 07:03 40.272636 -93.999495 58 35199ft 497kts
23-Jan-22 07:04 40.327548 -93.833374 58 35201ft 497kts
23-Jan-22 07:05 40.382035 -93.667625 58 35200ft 498kts
23-Jan-22 07:06 40.436677 -93.500230 58 35200ft 500kts
23-Jan-22 07:07 40.491184 -93.332477 59 35198ft 500kts
23-Jan-22 07:08 40.545637 -93.163781 59 35193ft 503kts
23-Jan-22 07:09 40.600013 -92.994042 60 35199ft 506kts
23-Jan-22 07:10 40.654547 -92.823144 59 35210ft 507kts
23-Jan-22 07:11 40.708843 -92.651590 59 35203ft 507kts
23-Jan-22 07:12 40.762791 -92.480197 59 35211ft 508kts
23-Jan-22 07:13 40.816784 -92.307488 60 35188ft 509kts
23-Jan-22 07:14 40.870677 -92.134133 61 35200ft 510kts
23-Jan-22 07:15 40.924168 -91.960643 60 35197ft 513kts
23-Jan-22 07:16 40.977765 -91.785807 61 35204ft 514kts
23-Jan-22 07:17 41.031288 -91.610107 60 35205ft 513kts
23-Jan-22 07:18 41.084373 -91.434481 61 35216ft 513kts
23-Jan-22 07:19 41.136701 -91.260467 61 35202ft 502kts
23-Jan-22 07:20 41.188518 -91.086976 61 35180ft 506kts
23-Jan-22 07:21 41.239980 -90.913394 61 35154ft 506kts
23-Jan-22 07:22 41.291368 -90.739196 61 35149ft 508kts
23-Jan-22 07:23 41.329178 -90.557068 75 35165ft 521kts
23-Jan-22 07:24 41.349826 -90.366301 76 35167ft 521kts
23-Jan-22 07:25 41.369837 -90.174996 77 35148ft 522kts
23-Jan-22 07:26 41.389401 -89.983992 77 35119ft 521kts
23-Jan-22 07:27 41.408674 -89.792934 77 35137ft 522kts
23-Jan-22 07:28 41.427658 -89.601372 77 35135ft 521kts
23-Jan-22 07:29 41.446388 -89.409269 77 35135ft 523kts
23-Jan-22 07:30 41.464817 -89.216919 78 35131ft 525kts
23-Jan-22 07:31 41.482930 -89.024023 78 35130ft 525kts
23-Jan-22 07:32 41.500774 -88.830553 78 35081ft 526kts
23-Jan-22 07:33 41.518304 -88.637074 77 35062ft 527kts
23-Jan-22 07:34 41.535598 -88.442425 78 35080ft 528kts
23-Jan-22 07:35 41.554719 -88.248501 76 35071ft 527kts
23-Jan-22 07:36 41.577665 -88.055884 76 35070ft 527kts
23-Jan-22 07:37 41.600360 -87.861779 76 35016ft 528kts
23-Jan-22 07:38 41.622721 -87.667564 76 35002ft 529kts
23-Jan-22 07:39 41.644635 -87.474263 76 35005ft 528kts
23-Jan-22 07:40 41.666334 -87.279901 77 34994ft 529kts
23-Jan-22 07:41 41.687769 -87.084810 77 34995ft 530kts
23-Jan-22 07:42 41.708854 -86.889690 77 34969ft 530kts
23-Jan-22 07:43 41.729690 -86.693758 77 34965ft 530kts
23-Jan-22 07:44 41.750094 -86.498593 77 34967ft 530kts
23-Jan-22 07:45 41.770277 -86.303179 77 34956ft 530kts
23-Jan-22 07:46 41.791728 -86.107681 77 34956ft 530kts
23-Jan-22 07:47 41.812781 -85.912299 77 34928ft 530kts
23-Jan-22 07:48 41.833496 -85.716887 77 34927ft 530kts
23-Jan-22 07:49 41.853981 -85.520315 77 34931ft 532kts
23-Jan-22 07:50 41.874167 -85.323311 78 34922ft 533kts
23-Jan-22 07:51 41.893982 -85.126505 78 34917ft 534kts
23-Jan-22 07:52 41.913559 -84.928585 78 34898ft 533kts
23-Jan-22 07:53 41.932689 -84.731610 79 34901ft 534kts
23-Jan-22 07:54 41.951517 -84.534130 79 34906ft 533kts
23-Jan-22 07:55 41.970027 -84.336342 80 34906ft 533kts
23-Jan-22 07:56 41.988172 -84.138767 80 34904ft 532kts
23-Jan-22 07:57 42.005963 -83.941183 80 34912ft 533kts
23-Jan-22 07:58 42.023447 -83.743070 80 34917ft 532kts
23-Jan-22 07:59 42.040503 -83.546001 80 34922ft 532kts
23-Jan-22 08:00 42.053738 -83.346839 83 34927ft 534kts
23-Jan-22 08:01 42.063557 -83.147864 84 34919ft 535kts
23-Jan-22 08:02 42.073118 -82.947760 84 34924ft 536kts
23-Jan-22 08:03 42.081679 -82.762025 84 34927ft 535kts
23-Jan-22 08:04 42.090593 -82.561266 84 34930ft 537kts
23-Jan-22 08:05 42.099154 -82.360458 84 34932ft 538kts
23-Jan-22 08:06 42.107405 -82.158996 85 34925ft 540kts
23-Jan-22 08:07 42.115282 -81.957762 85 34920ft 539kts
23-Jan-22 08:08 42.122831 -81.755890 85 34912ft 539kts
23-Jan-22 08:09 42.130017 -81.554237 85 34914ft 538kts
23-Jan-22 08:10 42.136836 -81.352879 85 34917ft 539kts
23-Jan-22 08:11 42.143306 -81.151273 86 34906ft 539kts
23-Jan-22 08:12 42.149421 -80.949446 86 34903ft 539kts
23-Jan-22 08:13 42.155194 -80.747485 86 34902ft 539kts
23-Jan-22 08:14 42.160621 -80.545236 87 34906ft 539kts
23-Jan-22 08:15 42.165680 -80.343139 88 34905ft 540kts
23-Jan-22 08:16 42.170374 -80.140895 88 34896ft 541kts
23-Jan-22 08:17 42.174717 -79.938215 88 34877ft 541kts
23-Jan-22 08:18 42.178705 -79.735772 88 34874ft 541kts
23-Jan-22 08:19 42.182346 -79.532795 88 34878ft 541kts
23-Jan-22 08:20 42.185626 -79.330444 89 34873ft 540kts
23-Jan-22 08:21 42.184462 -79.128772 100 34859ft 538kts
23-Jan-22 08:22 42.142408 -78.936586 111 34809ft 534kts
23-Jan-22 08:23 42.094813 -78.746467 112 34810ft 534kts
23-Jan-22 08:24 42.047083 -78.558012 112 34817ft 533kts
23-Jan-22 08:25 41.998938 -78.369430 112 34829ft 534kts
23-Jan-22 08:26 41.950581 -78.181521 113 34820ft 532kts
23-Jan-22 08:27 41.901811 -77.993471 113 34832ft 532kts
23-Jan-22 08:28 41.852730 -77.805738 113 34838ft 533kts
23-Jan-22 08:29 41.803325 -77.618189 113 34841ft 534kts
23-Jan-22 08:30 41.753612 -77.430943 113 34844ft 534kts
23-Jan-22 08:31 41.703587 -77.243903 114 34833ft 535kts
23-Jan-22 08:32 41.653069 -77.056523 114 34835ft 536kts
23-Jan-22 08:33 41.602307 -76.869674 114 34881ft 536kts
23-Jan-22 08:34 41.551231 -76.683068 115 34913ft 534kts
23-Jan-22 08:35 41.499921 -76.497012 115 34915ft 535kts
23-Jan-22 08:36 41.448247 -76.310961 115 34903ft 534kts
23-Jan-22 08:37 41.427006 -76.234895 116 34905ft 533kts
23-Jan-22 08:38 41.427006 -76.234895 116 34905ft 533kts
23-Jan-22 08:39 41.427006 -76.234895 116 34905ft 533kts
23-Jan-22 08:40 41.427006 -76.234895 116 34905ft 533kts
23-Jan-22 08:41 41.421453 -76.215058 116 34908ft 533kts
23-Jan-22 08:42 41.369541 -76.030268 116 34857ft 536kts
23-Jan-22 08:43 41.317036 -75.844694 115 32086ft 533kts
23-Jan-22 08:44 41.264082 -75.662128 119 29114ft 525kts
23-Jan-22 08:45 41.204993 -75.486205 119 26148ft 517kts
23-Jan-22 08:46 41.148637 -75.318503 120 24341ft 484kts
23-Jan-22 08:47 41.094694 -75.159035 120 22018ft 467kts
23-Jan-22 08:48 41.043450 -75.008307 119 19807ft 452kts
23-Jan-22 08:49 40.995449 -74.858269 105 17595ft 444kts
23-Jan-22 08:50 40.977524 -74.699049 100 15600ft 429kts
23-Jan-22 08:51 40.960753 -74.545667 100 13650ft 413kts
23-Jan-22 08:52 40.944418 -74.397999 100 11772ft 398kts
23-Jan-22 08:53 40.928658 -74.257171 100 10205ft 355kts
23-Jan-22 08:54 40.914944 -74.142785 111 9645ft 300kts
23-Jan-22 08:55 40.873429 -74.050958 126 8841ft 287kts
23-Jan-22 08:56 40.830313 -73.963064 126 7940ft 281kts
23-Jan-22 08:57 40.787791 -73.876819 126 7041ft 277kts
23-Jan-22 08:58 40.745992 -73.792128 126 6147ft 274kts
23-Jan-22 08:59 40.707401 -73.706337 121 5252ft 269kts
23-Jan-22 09:00 40.671037 -73.621351 121 4360ft 263kts
23-Jan-22 09:02 40.634967 -73.538233 121 3465ft 258kts
23-Jan-22 09:03 40.599342 -73.457062 121 2571ft 252kts
23-Jan-22 09:04 40.556027 -73.401495 193 2506ft 209kts
23-Jan-22 09:05 40.509438 -73.438840 245 2461ft 192kts
23-Jan-22 09:06 40.507728 -73.506580 298 2479ft 196kts
23-Jan-22 09:07 40.534871 -73.567327 298 2450ft 188kts
23-Jan-22 09:08 40.559157 -73.620595 297 2454ft 167kts
23-Jan-22 09:09 40.582999 -73.672987 298 1965ft 159kts
23-Jan-22 09:10 40.603456 -73.717857 297 1164ft 137kts
23-Jan-22 09:11 40.622856 -73.760550 297 436ft 135kts
23-Jan-22 09:12 40.640239 -73.798781 300 23ft 59kts
23-Jan-22 09:13 40.642472 -73.799885 130 23ft 8kts
23-Jan-22 09:14 40.640291 -73.796034 120 23ft 19kts
23-Jan-22 09:15 40.636823 -73.788429 120 23ft 26kts
23-Jan-22 09:16 40.634956 -73.783225 31 23ft 5kts
23-Jan-22 09:17 40.636027 -73.781425 83 23ft 0kts
23-Jan-22 09:18 40.638437 -73.794811 300 24ft 92kts
23-Jan-22 09:19 40.629149 -73.774414 299 209ft 135kts
23-Jan-22 09:20 40.637459 -73.792638 300 24ft 112kts
23-Jan-22 09:21 40.642734 -73.801944 358 23ft 19kts
23-Jan-22 09:22 40.621990 -73.758634 297 466ft 135kts
23-Jan-22 09:23 40.639802 -73.797810 300 24ft 64kts
23-Jan-22 09:23 40.634975 -73.787139 300 32ft 133kts
23-Jan-22 09:25 40.636022 -73.781478 83 16ft 0kts

Navigation Log

Ident Type
Flight plan parsing failed, navigation log unavailable